Time;durP1;ratioP1;P1;durP2;ratioP2;P2;SDS_P1;SDS_P2;PMS_P1;PMS_P2;Temp;Humidity;BMP_temperature;BMP_pressure;BME280_temperature;BME280_humidity;BME280_pressure;Samples;Min_cycle;Max_cycle;Signal;HPM_P1;HPM_P2
2021/12/24 00:01:52;;;;;;;156.35;31.55;;;;;;;;;;5051276;28;20044;-77
2021/12/24 00:04:18;;;;;;;159.00;31.52;;;;;;;;;;5067663;28;20040;-77
2021/12/24 00:06:44;;;;;;;203.43;31.85;;;;;;;;;;5068103;28;20044;-77
2021/12/24 00:09:20;;;;;;;148.90;30.17;;;;;;;;;;5051343;28;20480;-77
2021/12/24 00:11:46;;;;;;;197.30;32.33;;;;;;;;;;5068155;28;20063;-81
2021/12/24 00:14:12;;;;;;;147.55;29.10;;;;;;;;;;5068864;28;20040;-81
2021/12/24 00:16:46;;;;;;;190.85;32.03;;;;;;;;;;5051582;28;20048;-78
2021/12/24 00:22:15;;;;;;;185.10;29.48;;;;;;;;;;5067985;28;20502;-77
2021/12/24 00:35:32;;;;;;;174.63;28.52;;;;;;;;;;5071299;28;20404;-81
2021/12/24 00:38:03;;;;;;;165.10;28.02;;;;;;;;;;5069996;28;20053;-77
2021/12/24 00:40:32;;;;;;;155.95;26.65;;;;;;;;;;5054185;28;20045;-81
2021/12/24 00:42:58;;;;;;;129.98;25.92;;;;;;;;;;5071840;28;20040;-77
2021/12/24 00:45:29;;;;;;;115.18;22.90;;;;;;;;;;5070823;28;20044;-77
2021/12/24 00:47:56;;;;;;;105.97;22.85;;;;;;;;;;5054133;28;20051;-81
2021/12/24 00:50:25;;;;;;;104.82;22.98;;;;;;;;;;5070447;28;20053;-81
2021/12/24 00:55:44;;;;;;;91.07;20.77;;;;;;;;;;5042390;28;20044;-80
2021/12/24 00:58:10;;;;;;;96.60;20.80;;;;;;;;;;5070069;28;20476;-77
2021/12/24 01:00:38;;;;;;;86.40;20.92;;;;;;;;;;5070598;28;20416;-80
2021/12/24 01:03:06;;;;;;;95.57;20.88;;;;;;;;;;5069592;28;20037;-78
2021/12/24 01:05:33;;;;;;;91.43;21.20;;;;;;;;;;5069919;28;20055;-77
2021/12/24 01:07:59;;;;;;;100.38;22.73;;;;;;;;;;5070999;28;20040;-81
2021/12/24 01:10:30;;;;;;;77.13;20.40;;;;;;;;;;5053827;28;20040;-77
2021/12/24 01:12:57;;;;;;;85.22;20.83;;;;;;;;;;5054120;28;20047;-77
2021/12/24 01:15:23;;;;;;;74.68;18.10;;;;;;;;;;5070362;28;20040;-77
2021/12/24 01:17:58;;;;;;;60.72;17.08;;;;;;;;;;5070290;28;20037;-77
2021/12/24 01:20:39;;;;;;;60.47;16.95;;;;;;;;;;5071813;28;20039;-77
2021/12/24 01:25:51;;;;;;;54.20;15.20;;;;;;;;;;5071784;28;20403;-81
2021/12/24 01:39:23;;;;;;;47.53;13.65;;;;;;;;;;5083456;28;20128;-77
2021/12/24 01:44:35;;;;;;;37.77;12.00;;;;;;;;;;5083137;28;20040;-77
2021/12/24 01:47:03;;;;;;;37.13;12.38;;;;;;;;;;5065532;28;20049;-77
2021/12/24 01:49:29;;;;;;;42.40;13.45;;;;;;;;;;5049666;28;20546;-77
2021/12/24 01:51:57;;;;;;;45.03;13.50;;;;;;;;;;5049497;28;20447;-77
2021/12/24 01:54:23;;;;;;;38.08;12.73;;;;;;;;;;5051214;28;20114;-77
2021/12/24 01:56:49;;;;;;;42.20;13.85;;;;;;;;;;5032896;28;20049;-77
2021/12/24 01:59:15;;;;;;;45.22;14.13;;;;;;;;;;5065519;28;20084;-83
2021/12/24 02:01:41;;;;;;;46.08;14.02;;;;;;;;;;5049234;28;20056;-82
2021/12/24 02:04:08;;;;;;;52.95;15.00;;;;;;;;;;5065970;28;20053;-81
2021/12/24 02:06:34;;;;;;;53.75;15.25;;;;;;;;;;5065556;28;20045;-76
2021/12/24 02:09:00;;;;;;;53.30;15.65;;;;;;;;;;5049067;28;20056;-76
2021/12/24 02:11:26;;;;;;;61.60;16.67;;;;;;;;;;5049163;28;20044;-77
2021/12/24 02:13:53;;;;;;;59.60;15.85;;;;;;;;;;5065971;28;20400;-82
2021/12/24 02:29:58;;;;;;;62.03;15.85;;;;;;;;;;5085168;28;20053;-76
2021/12/24 02:32:24;;;;;;;68.22;17.50;;;;;;;;;;5068525;28;20040;-82
2021/12/24 02:34:50;;;;;;;67.93;17.27;;;;;;;;;;5070002;28;20403;-76
2021/12/24 02:37:18;;;;;;;69.13;16.75;;;;;;;;;;5068164;28;20480;-76
2021/12/24 02:39:44;;;;;;;63.85;15.48;;;;;;;;;;5069052;28;20512;-76
2021/12/24 02:42:15;;;;;;;67.82;15.60;;;;;;;;;;5068137;28;20440;-82
2021/12/24 02:44:41;;;;;;;64.82;15.43;;;;;;;;;;5068460;28;20497;-82
2021/12/24 02:47:15;;;;;;;61.45;16.27;;;;;;;;;;5067399;28;20143;-82
2021/12/24 02:54:59;;;;;;;70.43;16.08;;;;;;;;;;5068839;28;20444;-81
2021/12/24 02:57:28;;;;;;;70.22;16.08;;;;;;;;;;5067977;28;20049;-76
2021/12/24 03:00:06;;;;;;;65.43;15.55;;;;;;;;;;5069358;28;20057;-82
2021/12/24 03:02:33;;;;;;;55.40;13.75;;;;;;;;;;5065355;28;20075;-82
2021/12/24 03:05:00;;;;;;;53.45;14.70;;;;;;;;;;5067549;28;20040;-76
2021/12/24 03:07:26;;;;;;;54.85;14.00;;;;;;;;;;5067482;28;20501;-81
2021/12/24 03:09:52;;;;;;;50.40;14.57;;;;;;;;;;5068294;28;20040;-82
2021/12/24 03:12:18;;;;;;;50.78;15.40;;;;;;;;;;5067831;28;20080;-75
2021/12/24 03:14:44;;;;;;;49.28;15.63;;;;;;;;;;5068537;28;20442;-81
2021/12/24 03:17:15;;;;;;;56.28;16.70;;;;;;;;;;5051022;28;20120;-76
2021/12/24 03:19:41;;;;;;;66.13;18.08;;;;;;;;;;5068515;28;20044;-75
2021/12/24 03:24:52;;;;;;;74.30;19.88;;;;;;;;;;5068321;28;20438;-82
2021/12/24 03:27:18;;;;;;;73.35;20.02;;;;;;;;;;5033782;28;20040;-76
2021/12/24 03:29:44;;;;;;;70.63;20.63;;;;;;;;;;5068137;28;20327;-81
2021/12/24 03:32:10;;;;;;;76.10;22.15;;;;;;;;;;5067449;28;20048;-81
2021/12/24 03:34:36;;;;;;;77.28;21.45;;;;;;;;;;5068213;28;20036;-81
2021/12/24 03:37:04;;;;;;;74.82;21.33;;;;;;;;;;5050483;28;20193;-81
2021/12/24 03:39:30;;;;;;;79.43;22.25;;;;;;;;;;5067668;28;20271;-75
2021/12/24 03:41:57;;;;;;;81.05;21.63;;;;;;;;;;5068069;28;20065;-76
2021/12/24 03:44:34;;;;;;;86.03;23.67;;;;;;;;;;5067847;28;20365;-76
2021/12/24 03:47:08;;;;;;;94.00;23.67;;;;;;;;;;5067543;28;20048;-75
2021/12/24 03:49:39;;;;;;;105.15;24.38;;;;;;;;;;5051111;28;20125;-76
2021/12/24 03:54:58;;;;;;;86.63;23.33;;;;;;;;;;5067715;28;20117;-76
2021/12/24 03:57:25;;;;;;;92.20;23.95;;;;;;;;;;5053190;28;20303;-81
2021/12/24 03:59:52;;;;;;;91.07;23.33;;;;;;;;;;5055005;28;20040;-75
2021/12/24 04:02:18;;;;;;;86.80;24.33;;;;;;;;;;5070796;28;20059;-75
2021/12/24 04:04:44;;;;;;;81.90;21.75;;;;;;;;;;5071920;28;20440;-81
2021/12/24 04:07:10;;;;;;;80.97;21.88;;;;;;;;;;5070862;28;20048;-80
2021/12/24 04:09:39;;;;;;;68.05;20.45;;;;;;;;;;5054188;28;20076;-81
2021/12/24 04:12:05;;;;;;;70.80;20.42;;;;;;;;;;5072148;28;20480;-75
2021/12/24 04:14:31;;;;;;;71.50;20.38;;;;;;;;;;5071096;28;20088;-76
2021/12/24 04:16:57;;;;;;;74.47;21.00;;;;;;;;;;5071071;28;20044;-76
2021/12/24 04:24:53;;;;;;;60.80;19.13;;;;;;;;;;5070951;28;20036;-76
2021/12/24 04:27:29;;;;;;;67.83;18.93;;;;;;;;;;5072099;28;20049;-75
2021/12/24 04:30:04;;;;;;;67.07;19.15;;;;;;;;;;5071154;28;20040;-75
2021/12/24 04:32:52;;;;;;;57.88;18.42;;;;;;;;;;5072331;28;20045;-75
2021/12/24 04:51:30;;;;;;;65.80;20.48;;;;;;;;;;5071155;28;20045;-81
2021/12/24 05:04:48;;;;;;;65.70;18.48;;;;;;;;;;5069776;28;20044;-76
2021/12/24 05:07:50;;;;;;;64.53;18.33;;;;;;;;;;5054439;28;20052;-76
2021/12/24 05:10:01;;;;;;;57.63;16.92;;;;;;;;;;5069086;28;20040;-81
2021/12/24 05:12:29;;;;;;;54.55;17.48;;;;;;;;;;5070037;28;20060;-76
2021/12/24 05:14:57;;;;;;;52.88;16.67;;;;;;;;;;5070502;28;20052;-80
2021/12/24 05:22:34;;;;;;;46.80;15.20;;;;;;;;;;5071775;28;20492;-80
2021/12/24 05:25:01;;;;;;;53.97;15.57;;;;;;;;;;5071544;28;20037;-81
2021/12/24 05:27:27;;;;;;;43.97;14.80;;;;;;;;;;5053111;28;20098;-81
2021/12/24 05:29:54;;;;;;;47.03;15.20;;;;;;;;;;5071607;28;20041;-82
2021/12/24 05:32:20;;;;;;;45.90;14.77;;;;;;;;;;5053276;28;20059;-81
2021/12/24 05:34:47;;;;;;;40.10;13.13;;;;;;;;;;5071522;28;20484;-81
2021/12/24 05:37:13;;;;;;;51.25;14.95;;;;;;;;;;5070827;28;20174;-81
2021/12/24 05:39:39;;;;;;;41.55;12.93;;;;;;;;;;5053608;28;20040;-82
2021/12/24 05:42:05;;;;;;;34.05;12.80;;;;;;;;;;5052682;28;20040;-80
2021/12/24 05:44:33;;;;;;;37.42;12.45;;;;;;;;;;5071665;28;20047;-82
2021/12/24 05:46:59;;;;;;;39.25;12.40;;;;;;;;;;5071384;28;20070;-82
2021/12/24 05:49:25;;;;;;;39.97;12.65;;;;;;;;;;5069258;28;20049;-81
2021/12/24 05:51:51;;;;;;;32.78;11.20;;;;;;;;;;5069754;28;20121;-81
2021/12/24 05:54:17;;;;;;;37.33;11.55;;;;;;;;;;5069351;28;20083;-78
2021/12/24 05:56:44;;;;;;;39.65;10.77;;;;;;;;;;5069553;28;20484;-77
2021/12/24 05:59:11;;;;;;;36.42;11.80;;;;;;;;;;5069504;28;20040;-78
2021/12/24 06:01:37;;;;;;;34.17;11.55;;;;;;;;;;5069341;28;20152;-73
2021/12/24 06:04:03;;;;;;;32.58;11.65;;;;;;;;;;5069302;28;20052;-78
2021/12/24 06:06:30;;;;;;;35.63;11.52;;;;;;;;;;5069476;28;20042;-78
2021/12/24 06:08:56;;;;;;;30.67;11.32;;;;;;;;;;5069617;28;20040;-78
2021/12/24 06:11:22;;;;;;;39.15;10.75;;;;;;;;;;5069188;28;20129;-79
2021/12/24 06:13:53;;;;;;;35.03;9.75;;;;;;;;;;5070542;28;20044;-79
2021/12/24 06:16:19;;;;;;;38.47;9.90;;;;;;;;;;5052281;28;20044;-78
2021/12/24 06:18:45;;;;;;;37.65;9.40;;;;;;;;;;5069392;28;20059;-74
2021/12/24 06:21:11;;;;;;;40.75;10.55;;;;;;;;;;5068104;28;20492;-74
2021/12/24 06:23:38;;;;;;;32.78;8.95;;;;;;;;;;5069499;28;20445;-74
2021/12/24 06:26:05;;;;;;;28.17;9.48;;;;;;;;;;5068557;28;20048;-78
2021/12/24 06:28:32;;;;;;;29.75;8.75;;;;;;;;;;5069400;28;20378;-79
2021/12/24 06:30:58;;;;;;;35.72;9.68;;;;;;;;;;5068847;28;20127;-74
2021/12/24 06:33:24;;;;;;;30.55;9.00;;;;;;;;;;5052840;28;20045;-79
2021/12/24 06:35:53;;;;;;;31.77;8.98;;;;;;;;;;5069109;28;20048;-74
2021/12/24 06:38:19;;;;;;;24.60;9.27;;;;;;;;;;5068263;28;20051;-77
2021/12/24 06:40:45;;;;;;;25.30;8.32;;;;;;;;;;5068953;28;20036;-78
2021/12/24 06:43:11;;;;;;;33.28;9.07;;;;;;;;;;5052261;28;20553;-74
2021/12/24 06:45:37;;;;;;;36.53;9.77;;;;;;;;;;5068765;28;20040;-79
2021/12/24 06:48:04;;;;;;;28.30;8.15;;;;;;;;;;5069146;28;20040;-79
2021/12/24 06:50:31;;;;;;;26.15;8.38;;;;;;;;;;5068322;28;20051;-73
2021/12/24 06:52:57;;;;;;;28.63;7.80;;;;;;;;;;5068790;28;20040;-73
2021/12/24 06:55:23;;;;;;;28.52;9.05;;;;;;;;;;5068252;28;20048;-79
2021/12/24 06:57:50;;;;;;;29.75;8.63;;;;;;;;;;5070159;28;20499;-79
2021/12/24 07:00:18;;;;;;;31.80;8.38;;;;;;;;;;5067969;28;20086;-74
2021/12/24 07:02:45;;;;;;;29.38;8.38;;;;;;;;;;5068631;28;20576;-78
2021/12/24 07:05:11;;;;;;;19.88;8.05;;;;;;;;;;5068252;28;20071;-74
2021/12/24 07:07:37;;;;;;;29.75;8.02;;;;;;;;;;5068845;28;20040;-74
2021/12/24 07:10:04;;;;;;;27.42;7.65;;;;;;;;;;5051875;28;20093;-74
2021/12/24 07:12:30;;;;;;;20.45;7.35;;;;;;;;;;5051651;28;20074;-74
2021/12/24 07:14:56;;;;;;;27.95;7.40;;;;;;;;;;5068387;28;20047;-79
2021/12/24 07:17:22;;;;;;;19.63;7.28;;;;;;;;;;5068241;28;20041;-79
2021/12/24 07:19:49;;;;;;;26.40;7.53;;;;;;;;;;5069004;28;20043;-79
2021/12/24 07:22:17;;;;;;;19.05;6.78;;;;;;;;;;5051699;28;20040;-79
2021/12/24 07:24:43;;;;;;;26.52;6.20;;;;;;;;;;5069769;28;20041;-79
2021/12/24 07:27:10;;;;;;;29.00;7.05;;;;;;;;;;5068028;28;20055;-79
2021/12/24 07:29:36;;;;;;;22.25;5.85;;;;;;;;;;5068403;28;20135;-78
2021/12/24 07:32:03;;;;;;;27.08;6.30;;;;;;;;;;5070275;28;20040;-79
2021/12/24 07:34:29;;;;;;;24.50;6.25;;;;;;;;;;5072463;28;20111;-79
2021/12/24 07:36:55;;;;;;;25.67;6.55;;;;;;;;;;5073588;28;20040;-80
2021/12/24 07:39:21;;;;;;;24.17;5.78;;;;;;;;;;5073254;28;20081;-75
2021/12/24 07:41:48;;;;;;;26.60;6.40;;;;;;;;;;5072279;28;20037;-74
2021/12/24 07:44:16;;;;;;;29.23;6.38;;;;;;;;;;5072007;28;20048;-78
2021/12/24 07:46:50;;;;;;;26.50;5.75;;;;;;;;;;5072282;28;20048;-80
2021/12/24 07:52:03;;;;;;;24.52;6.43;;;;;;;;;;5056416;28;20054;-75
2021/12/24 07:54:30;;;;;;;28.75;6.60;;;;;;;;;;5055202;28;20557;-74
2021/12/24 07:56:56;;;;;;;31.30;6.60;;;;;;;;;;5055569;28;20484;-74
2021/12/24 07:59:23;;;;;;;31.85;6.75;;;;;;;;;;5071858;28;20110;-75
2021/12/24 08:01:49;;;;;;;26.20;6.50;;;;;;;;;;5071460;28;20405;-74
2021/12/24 08:04:15;;;;;;;26.83;6.53;;;;;;;;;;5054436;28;20062;-75
2021/12/24 08:06:42;;;;;;;32.60;6.72;;;;;;;;;;5054587;28;20058;-74
2021/12/24 08:09:08;;;;;;;25.58;6.90;;;;;;;;;;5072450;28;20047;-76
2021/12/24 08:11:34;;;;;;;30.23;7.03;;;;;;;;;;5055545;28;20480;-77
2021/12/24 08:14:04;;;;;;;28.92;6.43;;;;;;;;;;5072124;28;20063;-76
2021/12/24 08:16:31;;;;;;;35.00;6.75;;;;;;;;;;5071313;28;20043;-75
2021/12/24 08:18:57;;;;;;;26.02;6.28;;;;;;;;;;5071044;28;20181;-76
2021/12/24 08:21:23;;;;;;;26.17;6.43;;;;;;;;;;5071125;28;20373;-77
2021/12/24 08:23:50;;;;;;;27.02;5.78;;;;;;;;;;5055130;28;20040;-76
2021/12/24 08:26:17;;;;;;;33.97;6.88;;;;;;;;;;5071066;28;20066;-74
2021/12/24 08:28:43;;;;;;;29.05;5.50;;;;;;;;;;5071215;28;20041;-80
2021/12/24 08:31:09;;;;;;;25.40;5.20;;;;;;;;;;5070684;28;20090;-79
2021/12/24 08:33:35;;;;;;;26.63;5.53;;;;;;;;;;5072779;28;20045;-81
2021/12/24 08:36:05;;;;;;;34.65;6.07;;;;;;;;;;5071539;28;20043;-81
2021/12/24 08:38:31;;;;;;;26.40;4.90;;;;;;;;;;5054607;28;20045;-82
2021/12/24 08:40:58;;;;;;;24.00;4.78;;;;;;;;;;5071539;28;20399;-81
2021/12/24 08:43:24;;;;;;;29.35;4.78;;;;;;;;;;5070027;28;20070;-81
2021/12/24 08:45:50;;;;;;;29.50;4.95;;;;;;;;;;5071170;28;20415;-80
2021/12/24 08:48:16;;;;;;;18.40;4.60;;;;;;;;;;5070455;28;20408;-81
2021/12/24 08:50:42;;;;;;;24.83;5.72;;;;;;;;;;5054465;28;20051;-76
2021/12/24 08:53:08;;;;;;;22.52;4.43;;;;;;;;;;5072014;28;20038;-76
2021/12/24 08:55:35;;;;;;;24.33;4.10;;;;;;;;;;5070891;28;20040;-80
2021/12/24 08:58:02;;;;;;;23.38;4.40;;;;;;;;;;5037298;28;20079;-80
2021/12/24 09:00:29;;;;;;;29.13;4.53;;;;;;;;;;5070839;28;20079;-79
2021/12/24 09:02:56;;;;;;;34.20;5.72;;;;;;;;;;5071008;28;20056;-75
2021/12/24 09:05:23;;;;;;;25.75;4.72;;;;;;;;;;5070450;28;20055;-80
2021/12/24 09:07:49;;;;;;;28.65;5.05;;;;;;;;;;5070553;28;20051;-80
2021/12/24 09:10:15;;;;;;;23.02;4.82;;;;;;;;;;5070416;28;20094;-81
2021/12/24 09:12:43;;;;;;;23.65;5.18;;;;;;;;;;5053873;28;20049;-79
2021/12/24 09:15:10;;;;;;;27.45;4.93;;;;;;;;;;5070221;28;20107;-80
2021/12/24 09:17:36;;;;;;;28.20;5.60;;;;;;;;;;5053572;28;20101;-80
2021/12/24 09:20:03;;;;;;;23.80;5.53;;;;;;;;;;5053980;28;20040;-75
2021/12/24 09:22:33;;;;;;;20.60;5.28;;;;;;;;;;5071230;28;20043;-75
2021/12/24 09:24:59;;;;;;;21.13;4.82;;;;;;;;;;5070403;28;20147;-76
2021/12/24 09:27:26;;;;;;;22.65;5.97;;;;;;;;;;5069923;28;20094;-81
2021/12/24 09:29:52;;;;;;;23.15;5.22;;;;;;;;;;5053993;28;20036;-76
2021/12/24 09:32:19;;;;;;;26.27;6.00;;;;;;;;;;5053561;28;20063;-75
2021/12/24 09:34:45;;;;;;;27.17;5.65;;;;;;;;;;5053596;28;20480;-75
2021/12/24 09:37:11;;;;;;;26.23;5.97;;;;;;;;;;5053085;28;20048;-76
2021/12/24 09:39:37;;;;;;;28.88;5.65;;;;;;;;;;5071239;28;20449;-76
2021/12/24 09:42:04;;;;;;;24.70;5.05;;;;;;;;;;5069803;28;20028;-75
2021/12/24 09:44:30;;;;;;;25.98;5.50;;;;;;;;;;5053319;28;20494;-76
2021/12/24 09:46:56;;;;;;;25.92;5.30;;;;;;;;;;5053656;28;20351;-76
2021/12/24 09:49:24;;;;;;;24.00;5.47;;;;;;;;;;5070828;28;20109;-75
2021/12/24 09:51:51;;;;;;;23.77;5.35;;;;;;;;;;5069903;28;20040;-81
2021/12/24 09:54:19;;;;;;;28.55;5.60;;;;;;;;;;5070533;28;20049;-76
2021/12/24 09:56:46;;;;;;;24.10;4.75;;;;;;;;;;5069491;28;20113;-76
2021/12/24 09:59:13;;;;;;;29.52;6.45;;;;;;;;;;5069345;28;20052;-76
2021/12/24 10:01:42;;;;;;;19.77;4.70;;;;;;;;;;5069710;28;20044;-74
2021/12/24 10:04:10;;;;;;;20.25;5.10;;;;;;;;;;5069195;28;20056;-75
2021/12/24 10:06:38;;;;;;;27.35;5.35;;;;;;;;;;5069839;28;20058;-75
2021/12/24 10:09:07;;;;;;;27.45;5.32;;;;;;;;;;5069405;28;20045;-75
2021/12/24 10:11:50;;;;;;;22.85;5.53;;;;;;;;;;5069888;28;20040;-76
2021/12/24 10:14:18;;;;;;;23.30;5.35;;;;;;;;;;5069262;28;20080;-80
2021/12/24 10:16:46;;;;;;;22.67;4.55;;;;;;;;;;5070073;28;20361;-81
2021/12/24 10:19:13;;;;;;;20.08;5.40;;;;;;;;;;5068949;28;20045;-75
2021/12/24 10:21:39;;;;;;;28.58;5.75;;;;;;;;;;5052175;28;20093;-75
2021/12/24 10:24:09;;;;;;;22.30;6.32;;;;;;;;;;5052594;28;20114;-75
2021/12/24 10:26:36;;;;;;;31.23;6.38;;;;;;;;;;5069428;28;20527;-75
2021/12/24 10:29:16;;;;;;;23.73;5.57;;;;;;;;;;5069357;28;20048;-75
2021/12/24 10:31:52;;;;;;;26.52;5.85;;;;;;;;;;5052658;28;20480;-76
2021/12/24 10:34:21;;;;;;;21.42;5.43;;;;;;;;;;5068649;28;20052;-75
2021/12/24 10:36:58;;;;;;;23.20;5.18;;;;;;;;;;5069242;28;20074;-75
2021/12/24 10:39:26;;;;;;;23.27;5.90;;;;;;;;;;5068693;28;20048;-75
2021/12/24 10:41:54;;;;;;;29.48;5.93;;;;;;;;;;5069361;28;20491;-75
2021/12/24 10:44:22;;;;;;;35.42;7.85;;;;;;;;;;5068501;28;20047;-75
2021/12/24 10:46:58;;;;;;;29.42;6.65;;;;;;;;;;5068926;28;20050;-76
2021/12/24 10:52:16;;;;;;;26.45;6.00;;;;;;;;;;5054645;28;20575;-76
2021/12/24 10:55:06;;;;;;;28.02;6.38;;;;;;;;;;5069375;28;20043;-76
2021/12/24 10:57:37;;;;;;;28.83;5.95;;;;;;;;;;5046530;28;20086;-75
2021/12/24 11:00:06;;;;;;;27.73;5.40;;;;;;;;;;5068836;28;20430;-75
2021/12/24 11:02:35;;;;;;;25.48;6.22;;;;;;;;;;5069652;28;20052;-75
2021/12/24 11:05:01;;;;;;;26.20;5.57;;;;;;;;;;5068922;28;20048;-76
2021/12/24 11:07:41;;;;;;;25.02;5.53;;;;;;;;;;5067743;28;20439;-76
2021/12/24 11:10:19;;;;;;;19.33;5.10;;;;;;;;;;5051897;28;20373;-76
2021/12/24 11:13:08;;;;;;;20.73;4.72;;;;;;;;;;5052167;28;20044;-80
2021/12/24 11:15:34;;;;;;;12.20;3.47;;;;;;;;;;5068737;28;20173;-81
2021/12/24 11:18:03;;;;;;;4.38;1.73;;;;;;;;;;5068405;28;20123;-75
2021/12/24 11:20:30;;;;;;;2.67;1.13;;;;;;;;;;5068148;28;20036;-75
2021/12/24 11:23:08;;;;;;;2.33;0.85;;;;;;;;;;5068531;28;20044;-81
2021/12/24 11:25:40;;;;;;;1.85;0.80;;;;;;;;;;5068322;28;20044;-81
2021/12/24 11:28:07;;;;;;;1.65;0.90;;;;;;;;;;5068242;28;20136;-81
2021/12/24 11:30:35;;;;;;;1.65;0.90;;;;;;;;;;5067658;28;20516;-81
2021/12/24 11:33:01;;;;;;;2.65;1.10;;;;;;;;;;5068264;28;20048;-80
2021/12/24 11:35:28;;;;;;;2.25;1.20;;;;;;;;;;5051305;28;20044;-81
2021/12/24 11:37:54;;;;;;;2.13;1.30;;;;;;;;;;5068308;28;20082;-76
2021/12/24 11:40:22;;;;;;;2.65;1.40;;;;;;;;;;5051062;28;20094;-82
2021/12/24 11:42:54;;;;;;;2.45;1.50;;;;;;;;;;5067613;28;20072;-82
2021/12/24 11:45:22;;;;;;;2.97;1.60;;;;;;;;;;5067438;28;20078;-81
2021/12/24 11:47:48;;;;;;;2.83;1.52;;;;;;;;;;5067960;28;20184;-81
2021/12/24 11:50:14;;;;;;;2.10;1.45;;;;;;;;;;5067931;28;20391;-82
2021/12/24 11:52:41;;;;;;;3.00;1.75;;;;;;;;;;5051491;28;20514;-75
2021/12/24 11:55:07;;;;;;;3.40;1.58;;;;;;;;;;5067822;28;20050;-76
2021/12/24 11:57:33;;;;;;;3.00;2.00;;;;;;;;;;5067607;28;20041;-76
2021/12/24 12:00:09;;;;;;;2.20;1.40;;;;;;;;;;5067919;28;20045;-76
2021/12/24 12:02:45;;;;;;;2.67;1.60;;;;;;;;;;5050873;28;20056;-76
2021/12/24 12:05:11;;;;;;;2.75;1.85;;;;;;;;;;5067808;28;20037;-76
2021/12/24 12:07:37;;;;;;;2.78;1.45;;;;;;;;;;5051589;28;20041;-82
2021/12/24 12:10:04;;;;;;;2.13;1.40;;;;;;;;;;5069103;28;20615;-81
2021/12/24 12:12:38;;;;;;;2.45;1.58;;;;;;;;;;5067960;28;20048;-82
2021/12/24 12:15:22;;;;;;;3.05;1.48;;;;;;;;;;5067941;28;20064;-76
2021/12/24 12:17:53;;;;;;;2.25;1.42;;;;;;;;;;5069827;28;20123;-76
2021/12/24 12:20:57;;;;;;;2.08;1.27;;;;;;;;;;5071266;28;20131;-76
2021/12/24 12:24:57;;;;;;;2.38;1.20;;;;;;;;;;5050478;28;20058;-81
2021/12/24 12:26:46;;;;;;;2.80;1.08;;;;;;;;;;5071121;28;20549;-81
2021/12/24 12:29:16;;;;;;;1.77;1.00;;;;;;;;;;5071457;28;20037;-82
2021/12/24 12:31:42;;;;;;;1.92;1.02;;;;;;;;;;5071278;28;20072;-81
2021/12/24 12:34:27;;;;;;;1.80;0.95;;;;;;;;;;5071614;28;20032;-80
2021/12/24 12:36:53;;;;;;;1.98;0.93;;;;;;;;;;5071440;28;20133;-81
2021/12/24 12:39:26;;;;;;;1.77;1.00;;;;;;;;;;5071026;28;20412;-81
2021/12/24 12:41:52;;;;;;;2.22;1.23;;;;;;;;;;5071423;28;20110;-81
2021/12/24 12:44:19;;;;;;;1.70;0.98;;;;;;;;;;5071068;28;20127;-80
2021/12/24 12:46:51;;;;;;;2.17;1.20;;;;;;;;;;5071520;28;20488;-81
2021/12/24 12:49:30;;;;;;;3.40;1.20;;;;;;;;;;5054161;28;20047;-81
2021/12/24 12:52:00;;;;;;;2.25;1.00;;;;;;;;;;5070835;28;20051;-76
2021/12/24 12:54:32;;;;;;;2.58;1.20;;;;;;;;;;5054137;28;20116;-80
2021/12/24 12:57:22;;;;;;;2.33;1.30;;;;;;;;;;5070571;28;20067;-81
2021/12/24 13:00:07;;;;;;;2.30;1.35;;;;;;;;;;5065535;28;20052;-75
2021/12/24 13:02:52;;;;;;;2.17;1.40;;;;;;;;;;5070079;28;20070;-76
2021/12/24 13:05:18;;;;;;;2.60;1.55;;;;;;;;;;5053678;28;20131;-80
2021/12/24 13:07:44;;;;;;;2.55;1.60;;;;;;;;;;5070809;28;20066;-80
2021/12/24 13:10:10;;;;;;;4.85;2.55;;;;;;;;;;5070341;28;20119;-80
2021/12/24 13:12:38;;;;;;;174.98;116.20;;;;;;;;;;5071582;28;20040;-80
2021/12/24 13:15:05;;;;;;;97.95;69.53;;;;;;;;;;5070894;28;20040;-81
2021/12/24 13:17:32;;;;;;;12.40;8.77;;;;;;;;;;5070431;28;20075;-81
2021/12/24 13:20:14;;;;;;;52.50;28.33;;;;;;;;;;5071603;28;20087;-77
2021/12/24 13:22:40;;;;;;;6.25;4.28;;;;;;;;;;5070497;28;20037;-77
2021/12/24 13:25:14;;;;;;;3.95;2.45;;;;;;;;;;5070350;28;20040;-80
2021/12/24 13:27:44;;;;;;;3.72;2.50;;;;;;;;;;5053665;28;20098;-81
2021/12/24 13:30:10;;;;;;;4.03;2.30;;;;;;;;;;5052829;28;20055;-80
2021/12/24 13:32:53;;;;;;;4.25;2.35;;;;;;;;;;5071686;28;20041;-81
2021/12/24 13:35:21;;;;;;;3.25;2.40;;;;;;;;;;5070049;28;20051;-77
2021/12/24 13:37:48;;;;;;;5.72;2.60;;;;;;;;;;5071412;28;20052;-77
2021/12/24 13:40:20;;;;;;;3.42;2.20;;;;;;;;;;5069910;28;20480;-76
2021/12/24 13:42:54;;;;;;;3.83;2.53;;;;;;;;;;5071379;28;20059;-77
2021/12/24 13:45:21;;;;;;;4.60;2.80;;;;;;;;;;5069820;28;20072;-77
2021/12/24 13:48:03;;;;;;;9.88;6.25;;;;;;;;;;5069837;28;20048;-77
2021/12/24 13:56:04;;;;;;;4.63;3.03;;;;;;;;;;5069676;28;20053;-80
2021/12/24 13:58:30;;;;;;;4.00;2.60;;;;;;;;;;5068958;28;20090;-81
2021/12/24 14:00:58;;;;;;;4.10;2.80;;;;;;;;;;5069691;28;20036;-81
2021/12/24 14:03:32;;;;;;;4.60;2.70;;;;;;;;;;5069010;28;20060;-81
2021/12/24 14:06:00;;;;;;;5.03;3.40;;;;;;;;;;5053238;28;20056;-81
2021/12/24 14:08:30;;;;;;;6.15;3.15;;;;;;;;;;5069031;28;20088;-81
2021/12/24 14:11:21;;;;;;;4.93;3.20;;;;;;;;;;5069535;28;20101;-80
2021/12/24 14:13:55;;;;;;;4.97;3.05;;;;;;;;;;5053187;28;20060;-80
2021/12/24 14:19:08;;;;;;;5.82;3.60;;;;;;;;;;5069614;28;20392;-81
2021/12/24 14:21:47;;;;;;;4.80;3.33;;;;;;;;;;5052480;28;20048;-80
2021/12/24 14:24:27;;;;;;;6.97;3.85;;;;;;;;;;5052544;28;20500;-80
2021/12/24 14:26:56;;;;;;;4.93;3.08;;;;;;;;;;5069569;28;20052;-81
2021/12/24 14:29:29;;;;;;;5.38;3.28;;;;;;;;;;5069147;28;20089;-81
2021/12/24 14:32:04;;;;;;;5.45;3.65;;;;;;;;;;5069467;28;20044;-80
2021/12/24 14:34:30;;;;;;;6.53;4.05;;;;;;;;;;5052593;28;20554;-80
2021/12/24 14:37:00;;;;;;;6.18;3.40;;;;;;;;;;5069357;28;20427;-81
2021/12/24 14:39:33;;;;;;;4.63;2.90;;;;;;;;;;5069080;28;20102;-81
2021/12/24 14:42:09;;;;;;;4.70;2.90;;;;;;;;;;5068621;28;20032;-77
2021/12/24 14:44:35;;;;;;;;;;;;;;;;;;5068791;28;20048;-77
2021/12/24 14:47:01;;;;;;;5.70;3.53;;;;;;;;;;5068798;28;20007;-77
2021/12/24 14:49:34;;;;;;;8.38;4.80;;;;;;;;;;5068505;28;20485;-77
2021/12/24 14:52:17;;;;;;;9.52;4.90;;;;;;;;;;5068615;28;20045;-77
2021/12/24 14:55:02;;;;;;;7.20;3.63;;;;;;;;;;5069654;28;20063;-76
2021/12/24 14:57:28;;;;;;;6.55;2.80;;;;;;;;;;5068004;28;20044;-77
2021/12/24 14:59:54;;;;;;;6.72;3.63;;;;;;;;;;5068838;28;20040;-80
2021/12/24 15:02:20;;;;;;;9.02;3.97;;;;;;;;;;5050999;28;20102;-80
2021/12/24 15:04:55;;;;;;;8.85;4.40;;;;;;;;;;5051896;28;20419;-81
2021/12/24 15:07:29;;;;;;;7.60;4.07;;;;;;;;;;5068331;28;20058;-80
2021/12/24 15:10:11;;;;;;;9.18;4.15;;;;;;;;;;5068235;28;20048;-80
2021/12/24 15:12:49;;;;;;;7.95;4.00;;;;;;;;;;5067789;28;20080;-80
2021/12/24 15:15:16;;;;;;;6.10;3.42;;;;;;;;;;5067796;28;20044;-80
2021/12/24 15:17:43;;;;;;;5.38;2.95;;;;;;;;;;5051298;28;20049;-80
2021/12/24 15:20:10;;;;;;;6.97;3.15;;;;;;;;;;5068457;28;20492;-80
2021/12/24 15:22:36;;;;;;;4.78;3.05;;;;;;;;;;5067944;28;20044;-79
2021/12/24 15:25:04;;;;;;;4.85;3.08;;;;;;;;;;5068349;28;20416;-76
2021/12/24 15:27:35;;;;;;;4.95;3.53;;;;;;;;;;5068911;28;20044;-76
2021/12/24 15:30:03;;;;;;;5.38;3.13;;;;;;;;;;5052097;28;20072;-75
2021/12/24 15:32:29;;;;;;;7.47;3.42;;;;;;;;;;5068847;28;20082;-75
2021/12/24 15:34:55;;;;;;;8.15;3.40;;;;;;;;;;5068143;28;20045;-78
2021/12/24 15:37:21;;;;;;;5.80;3.72;;;;;;;;;;5067604;28;20045;-79
2021/12/24 15:39:47;;;;;;;7.00;3.60;;;;;;;;;;5067917;28;20140;-79
2021/12/24 15:42:15;;;;;;;6.72;3.75;;;;;;;;;;5067496;28;20048;-80
2021/12/24 15:44:45;;;;;;;6.53;3.75;;;;;;;;;;5051637;28;20444;-80
2021/12/24 15:47:12;;;;;;;7.10;4.07;;;;;;;;;;5068258;28;20072;-81
2021/12/24 15:49:38;;;;;;;6.35;3.88;;;;;;;;;;5067487;28;20040;-80
2021/12/24 15:52:04;;;;;;;6.63;4.05;;;;;;;;;;5051903;28;20051;-80
2021/12/24 15:54:31;;;;;;;6.35;4.10;;;;;;;;;;5072644;28;20037;-80
2021/12/24 15:56:57;;;;;;;6.53;4.35;;;;;;;;;;5072021;28;20439;-80
2021/12/24 15:59:25;;;;;;;7.10;4.30;;;;;;;;;;5054562;28;20048;-80
2021/12/24 16:01:51;;;;;;;7.75;4.10;;;;;;;;;;5054785;28;20051;-79
2021/12/24 16:04:17;;;;;;;7.85;4.85;;;;;;;;;;5071144;28;20048;-80
2021/12/24 16:06:44;;;;;;;8.15;5.10;;;;;;;;;;5071991;28;20119;-80
2021/12/24 16:09:10;;;;;;;6.15;3.97;;;;;;;;;;5071559;28;20093;-80
2021/12/24 16:11:36;;;;;;;6.70;4.28;;;;;;;;;;5071393;28;20373;-80
2021/12/24 16:14:02;;;;;;;5.90;3.78;;;;;;;;;;5054928;28;20086;-80
2021/12/24 16:16:28;;;;;;;7.38;3.28;;;;;;;;;;5054920;28;20040;-80
2021/12/24 16:18:54;;;;;;;6.30;3.10;;;;;;;;;;5071277;28;20048;-80
2021/12/24 16:21:20;;;;;;;6.60;3.25;;;;;;;;;;5054568;28;20040;-76
2021/12/24 16:23:46;;;;;;;5.20;2.63;;;;;;;;;;5072693;28;20067;-80
2021/12/24 16:26:13;;;;;;;7.25;2.72;;;;;;;;;;5054808;28;20040;-80
2021/12/24 16:28:39;;;;;;;5.47;2.78;;;;;;;;;;5054856;28;20051;-76